Time;durP1;ratioP1;P1;durP2;ratioP2;P2;SDS_P1;SDS_P2;PMS_P1;PMS_P2;Temp;Humidity;BMP_temperature;BMP_pressure;BME280_temperature;BME280_humidity;BME280_pressure;Samples;Min_cycle;Max_cycle;Signal;HPM_P1;HPM_P2
2023/12/25 00:01:06;;;;;;;18.33;11.35;;;;;;;9.45;100.00;99423.78;5112125;28;20509;-43
2023/12/25 00:03:35;;;;;;;18.42;10.77;;;;;;;9.47;100.00;99410.41;5096798;28;20048;-43
2023/12/25 00:06:20;;;;;;;18.65;11.40;;;;;;;9.49;100.00;99383.66;5091637;28;20083;-43
2023/12/25 00:08:51;;;;;;;;;;;;;;;9.47;100.00;99418.38;5091778;28;20039;-42
2023/12/25 00:11:20;;;;;;;19.75;10.90;;;;;;;9.42;100.00;99417.81;5091575;28;20016;-43
2023/12/25 00:13:52;;;;;;;18.63;11.82;;;;;;;9.48;100.00;99422.75;5105339;28;20043;-42
2023/12/25 00:16:20;;;;;;;20.58;11.68;;;;;;;9.44;100.00;99410.59;5111888;28;20040;-43
2023/12/25 00:18:48;;;;;;;19.88;11.35;;;;;;;9.49;100.00;99410.28;5111804;28;20040;-43
2023/12/25 00:21:18;;;;;;;21.65;12.35;;;;;;;9.49;100.00;99408.47;5111967;28;20051;-42
2023/12/25 00:23:47;;;;;;;19.45;12.00;;;;;;;9.52;100.00;99397.59;5093325;28;20044;-42
2023/12/25 00:26:15;;;;;;;21.02;11.73;;;;;;;9.44;100.00;99405.25;5100587;28;20083;-43
2023/12/25 00:28:44;;;;;;;20.00;11.85;;;;;;;9.48;100.00;99395.28;5111833;28;20419;-42
2023/12/25 00:31:12;;;;;;;21.00;12.52;;;;;;;9.45;100.00;99396.31;5111624;28;20146;-43
2023/12/25 00:33:41;;;;;;;18.15;12.30;;;;;;;9.49;100.00;99394.31;5111803;28;20086;-42
2023/12/25 00:36:10;;;;;;;19.08;12.25;;;;;;;9.29;100.00;99395.69;5111805;28;20047;-43
2023/12/25 00:38:40;;;;;;;18.40;11.60;;;;;;;9.24;100.00;99392.47;5110305;28;20496;-43
2023/12/25 00:41:09;;;;;;;19.13;11.80;;;;;;;9.38;100.00;99406.56;5101765;28;20414;-44
2023/12/25 00:43:37;;;;;;;19.88;11.68;;;;;;;9.24;100.00;99411.09;5091101;28;20089;-42
2023/12/25 00:46:06;;;;;;;19.42;11.93;;;;;;;9.20;100.00;99406.94;5091613;28;20142;-43
2023/12/25 00:48:34;;;;;;;19.05;11.82;;;;;;;9.40;100.00;99409.09;5095349;28;20070;-42
2023/12/25 00:51:03;;;;;;;22.02;12.05;;;;;;;9.46;100.00;99400.72;5112567;28;20134;-42
2023/12/25 00:53:31;;;;;;;20.33;12.00;;;;;;;9.42;100.00;99409.84;5115745;28;20094;-42
2023/12/25 00:56:05;;;;;;;20.35;12.07;;;;;;;9.44;100.00;99415.91;5101363;28;20075;-42
2023/12/25 00:58:33;;;;;;;21.58;11.98;;;;;;;9.40;100.00;99425.94;5094985;28;20106;-42
2023/12/25 01:01:02;;;;;;;21.50;12.38;;;;;;;9.48;100.00;99430.72;5095057;28;20056;-42
2023/12/25 01:03:31;;;;;;;19.70;12.82;;;;;;;9.50;100.00;99439.47;5095044;28;20060;-42
2023/12/25 01:05:59;;;;;;;20.17;12.73;;;;;;;9.58;100.00;99449.59;5094865;28;20047;-43
2023/12/25 01:08:27;;;;;;;19.33;12.05;;;;;;;9.57;100.00;99459.38;5107032;28;20052;-42
2023/12/25 01:10:56;;;;;;;20.17;12.65;;;;;;;9.55;100.00;99442.63;5114039;28;20529;-41
2023/12/25 01:13:26;;;;;;;20.98;12.80;;;;;;;9.51;100.00;99438.50;5115031;28;20040;-42
2023/12/25 01:15:54;;;;;;;24.10;13.43;;;;;;;9.53;100.00;99441.91;5115252;28;20100;-42
2023/12/25 01:18:22;;;;;;;22.10;12.45;;;;;;;9.30;100.00;99440.81;5115218;28;20159;-42
2023/12/25 01:20:51;;;;;;;20.02;12.27;;;;;;;9.32;100.00;99457.53;5112895;27;20044;-42
2023/12/25 01:23:19;;;;;;;19.20;12.82;;;;;;;9.35;100.00;99453.78;5094517;28;20044;-42
2023/12/25 01:25:47;;;;;;;22.52;12.82;;;;;;;9.29;100.00;99455.09;5094399;28;20131;-42
2023/12/25 01:28:15;;;;;;;20.30;13.10;;;;;;;9.42;100.00;99468.41;5094283;28;20222;-43
2023/12/25 01:30:46;;;;;;;22.50;13.70;;;;;;;9.38;100.00;99474.91;5094497;28;20064;-43
2023/12/25 01:33:14;;;;;;;22.00;13.40;;;;;;;9.30;100.00;99475.41;5094017;28;20052;-42
2023/12/25 01:35:42;;;;;;;21.63;13.43;;;;;;;9.31;100.00;99458.47;5094244;28;20056;-42
2023/12/25 01:38:11;;;;;;;23.85;12.93;;;;;;;9.26;100.00;99460.59;5095695;28;20044;-42
2023/12/25 01:40:39;;;;;;;23.25;13.45;;;;;;;9.37;100.00;99458.09;5114872;28;20048;-43
2023/12/25 01:43:07;;;;;;;22.50;13.65;;;;;;;9.39;100.00;99464.16;5114689;28;20523;-43
2023/12/25 01:45:36;;;;;;;20.27;13.63;;;;;;;9.37;100.00;99458.09;5114499;28;20044;-43
2023/12/25 01:48:07;;;;;;;22.65;12.98;;;;;;;9.36;100.00;99461.72;5100603;28;20151;-42
2023/12/25 01:50:34;;;;;;;23.00;13.90;;;;;;;9.44;100.00;99479.78;5073944;28;20052;-44
2023/12/25 01:53:03;;;;;;;19.70;12.93;;;;;;;9.46;100.00;99481.41;5105093;28;20052;-44
2023/12/25 01:55:32;;;;;;;19.55;13.13;;;;;;;9.37;100.00;99465.22;5105382;28;20050;-43
2023/12/25 01:58:00;;;;;;;21.15;12.75;;;;;;;9.38;100.00;99469.56;5093253;28;20083;-43
2023/12/25 02:00:28;;;;;;;22.45;14.00;;;;;;;9.30;100.00;99462.09;5093851;28;20044;-42
2023/12/25 02:02:57;;;;;;;21.42;12.98;;;;;;;9.39;100.00;99452.66;5093640;28;20083;-44
2023/12/25 02:05:27;;;;;;;20.17;12.75;;;;;;;9.42;100.00;99450.63;5093650;28;20044;-42
2023/12/25 02:07:56;;;;;;;19.13;12.23;;;;;;;9.43;100.00;99454.13;5093723;28;20048;-45
2023/12/25 02:10:28;;;;;;;22.52;13.18;;;;;;;9.44;100.00;99454.03;5108551;28;20043;-43
2023/12/25 02:12:57;;;;;;;21.35;12.10;;;;;;;9.39;100.00;99455.31;5106133;28;20397;-43
2023/12/25 02:15:27;;;;;;;19.02;12.35;;;;;;;9.44;100.00;99454.03;5093541;28;20048;-43
2023/12/25 02:17:55;;;;;;;22.77;12.75;;;;;;;9.40;100.00;99468.50;5093792;28;20052;-43
2023/12/25 02:20:26;;;;;;;20.25;11.95;;;;;;;9.43;100.00;99470.09;5073350;28;20052;-42
2023/12/25 02:22:56;;;;;;;21.15;12.25;;;;;;;9.41;100.00;99470.22;5073274;28;20114;-42
2023/12/25 02:25:31;;;;;;;21.83;11.55;;;;;;;9.43;100.00;99467.44;5076593;28;20066;-42
2023/12/25 02:28:01;;;;;;;18.52;11.52;;;;;;;9.51;100.00;99467.78;5113477;28;20126;-44
2023/12/25 02:30:29;;;;;;;18.25;11.70;;;;;;;9.51;100.00;99458.94;5113498;28;20043;-41
2023/12/25 02:33:04;;;;;;;17.90;10.85;;;;;;;9.51;100.00;99459.78;5113578;27;20051;-42
2023/12/25 02:35:33;;;;;;;18.98;11.00;;;;;;;9.50;100.00;99457.25;5113636;28;20043;-42
2023/12/25 02:38:01;;;;;;;17.88;10.50;;;;;;;9.50;100.00;99451.91;5113415;28;20120;-42
2023/12/25 02:40:30;;;;;;;16.15;10.48;;;;;;;9.58;100.00;99446.94;5094639;28;20048;-43
2023/12/25 02:42:58;;;;;;;19.75;11.23;;;;;;;9.56;100.00;99457.69;5099573;28;20096;-42
2023/12/25 02:45:28;;;;;;;18.05;10.65;;;;;;;9.58;100.00;99466.41;5113131;28;20464;-42
2023/12/25 02:47:56;;;;;;;20.25;10.60;;;;;;;9.59;100.00;99480.56;5113322;28;20086;-41
2023/12/25 02:50:25;;;;;;;14.60;9.40;;;;;;;9.59;100.00;99488.56;5095361;28;20560;-47
2023/12/25 02:52:54;;;;;;;15.70;9.05;;;;;;;9.73;100.00;99493.78;5093174;28;20059;-42
2023/12/25 02:55:23;;;;;;;14.50;8.30;;;;;;;9.81;100.00;99494.09;5092718;28;20511;-44
2023/12/25 02:57:51;;;;;;;12.73;7.50;;;;;;;9.84;100.00;99493.88;5092471;28;20043;-44
2023/12/25 03:00:20;;;;;;;12.48;7.13;;;;;;;9.87;100.00;99500.84;5109002;28;20047;-43
2023/12/25 03:02:50;;;;;;;10.68;6.53;;;;;;;9.95;100.00;99501.16;5113055;28;20081;-41
2023/12/25 03:05:18;;;;;;;8.75;4.43;;;;;;;10.23;100.00;99497.44;5113169;28;20092;-44
2023/12/25 03:07:46;;;;;;;6.22;3.88;;;;;;;10.41;100.00;99482.78;5113071;28;20039;-42
2023/12/25 03:10:15;;;;;;;6.65;3.90;;;;;;;10.56;100.00;99480.84;5112686;28;20119;-42
2023/12/25 03:12:46;;;;;;;6.60;3.42;;;;;;;10.70;100.00;99483.34;5113142;28;20048;-42
2023/12/25 03:15:14;;;;;;;5.68;2.70;;;;;;;10.78;100.00;99486.31;5097639;28;20079;-43
2023/12/25 03:17:43;;;;;;;6.70;2.88;;;;;;;10.85;100.00;99484.06;5092687;28;20055;-43
2023/12/25 03:20:13;;;;;;;5.50;2.80;;;;;;;11.03;100.00;99508.56;5092636;28;20048;-42
2023/12/25 03:22:44;;;;;;;4.18;2.40;;;;;;;11.19;100.00;99490.41;5092567;28;20500;-41
2023/12/25 03:25:13;;;;;;;4.57;2.20;;;;;;;11.30;100.00;99498.50;5092121;28;20151;-43
2023/12/25 03:27:41;;;;;;;5.18;2.33;;;;;;;11.42;100.00;99505.56;5105709;28;20055;-43
2023/12/25 03:30:10;;;;;;;4.80;2.25;;;;;;;11.49;100.00;99495.28;5112747;28;20108;-42
2023/12/25 03:32:39;;;;;;;3.90;2.10;;;;;;;11.53;100.00;99506.59;5112507;28;20565;-43
2023/12/25 03:35:09;;;;;;;4.32;2.28;;;;;;;11.47;100.00;99476.69;5096269;28;20044;-43
2023/12/25 03:37:39;;;;;;;3.72;2.03;;;;;;;11.58;100.00;99491.03;5093175;28;20131;-42
2023/12/25 03:40:08;;;;;;;5.32;2.20;;;;;;;11.78;100.00;99508.25;5112553;28;20059;-44
2023/12/25 03:42:37;;;;;;;3.53;1.80;;;;;;;11.90;100.00;99488.63;5112510;28;20083;-44
2023/12/25 03:45:06;;;;;;;3.30;1.60;;;;;;;12.03;100.00;99502.72;5112591;28;20044;-42
2023/12/25 03:47:34;;;;;;;2.90;1.50;;;;;;;11.96;100.00;99485.44;5112292;28;20126;-43
2023/12/25 03:50:03;;;;;;;5.00;1.70;;;;;;;12.03;100.00;99487.53;5112112;28;20131;-42
2023/12/25 03:52:31;;;;;;;4.60;1.65;;;;;;;12.10;100.00;99505.78;5112320;28;20428;-42
2023/12/25 03:55:01;;;;;;;3.97;2.00;;;;;;;12.38;100.00;99481.22;5108766;28;20052;-43
2023/12/25 03:57:29;;;;;;;3.58;2.00;;;;;;;12.10;100.00;99492.41;5091668;28;20189;-43
2023/12/25 03:59:58;;;;;;;6.65;1.95;;;;;;;12.13;100.00;99476.97;5091508;28;20087;-42
2023/12/25 04:02:26;;;;;;;3.03;1.42;;;;;;;12.13;100.00;99487.66;5090311;28;20052;-43
2023/12/25 04:04:54;;;;;;;3.78;1.60;;;;;;;12.21;100.00;99487.91;5091472;28;20075;-42
2023/12/25 04:07:23;;;;;;;2.67;1.35;;;;;;;12.18;100.00;99479.28;5111538;28;20043;-42
2023/12/25 04:09:51;;;;;;;3.58;1.63;;;;;;;12.27;100.00;99483.91;5112196;28;20039;-43
2023/12/25 04:12:21;;;;;;;4.97;1.50;;;;;;;12.26;100.00;99483.06;5111907;28;20040;-43
2023/12/25 04:14:49;;;;;;;3.33;1.35;;;;;;;12.26;100.00;99467.03;5112015;28;20472;-43
2023/12/25 04:17:17;;;;;;;3.45;1.45;;;;;;;12.28;100.00;99472.25;5104055;28;20846;-43
2023/12/25 04:19:46;;;;;;;2.00;1.35;;;;;;;12.46;100.00;99476.13;5091886;28;20055;-42
2023/12/25 04:22:14;;;;;;;2.53;1.30;;;;;;;12.51;100.00;99484.63;5091110;28;20148;-43
2023/12/25 04:24:43;;;;;;;2.83;1.40;;;;;;;12.59;100.00;99484.84;5106944;28;20552;-42
2023/12/25 04:27:11;;;;;;;2.10;1.25;;;;;;;12.63;100.00;99481.91;5111897;28;20107;-42
2023/12/25 04:29:41;;;;;;;3.47;1.40;;;;;;;12.68;100.00;99471.72;5112096;28;20044;-43
2023/12/25 04:32:09;;;;;;;2.42;1.02;;;;;;;12.74;100.00;99480.09;5112272;28;20047;-43
2023/12/25 04:34:38;;;;;;;3.60;1.30;;;;;;;12.77;100.00;99485.19;5100023;28;20051;-45
2023/12/25 04:37:06;;;;;;;2.40;1.23;;;;;;;12.78;100.00;99484.22;5112194;28;20055;-43
2023/12/25 04:39:35;;;;;;;3.95;1.10;;;;;;;12.84;100.00;99482.88;5112083;28;20047;-43
2023/12/25 04:42:03;;;;;;;3.60;1.20;;;;;;;12.87;100.00;99461.22;5112070;28;20097;-43
2023/12/25 04:44:32;;;;;;;2.80;1.05;;;;;;;12.84;100.00;99467.66;5111775;28;20428;-44
2023/12/25 04:47:01;;;;;;;2.08;0.95;;;;;;;12.77;100.00;99473.63;5112224;28;20050;-44
2023/12/25 04:49:29;;;;;;;2.17;0.80;;;;;;;12.85;100.00;99482.75;5112603;28;20043;-43
2023/12/25 04:51:58;;;;;;;4.18;1.33;;;;;;;12.78;100.00;99480.69;5092576;28;20131;-42
2023/12/25 04:54:26;;;;;;;2.17;0.85;;;;;;;12.92;100.00;99475.03;5091874;28;20048;-43
2023/12/25 04:56:56;;;;;;;2.85;1.10;;;;;;;13.10;100.00;99472.69;5090714;28;20102;-42
2023/12/25 04:59:25;;;;;;;2.72;1.10;;;;;;;13.06;100.00;99461.38;5091081;28;20048;-43
2023/12/25 05:01:54;;;;;;;3.90;0.80;;;;;;;13.15;100.00;99471.34;5091123;28;20078;-42
2023/12/25 05:04:24;;;;;;;2.28;0.93;;;;;;;13.31;100.00;99470.06;5091528;28;20044;-43
2023/12/25 05:06:53;;;;;;;1.75;1.00;;;;;;;13.27;100.00;99474.84;5091567;28;20135;-43
2023/12/25 05:09:21;;;;;;;1.85;0.95;;;;;;;13.28;100.00;99464.97;5091462;28;20200;-43
2023/12/25 05:11:49;;;;;;;2.55;1.15;;;;;;;13.31;100.00;99475.44;5091337;28;20048;-42
2023/12/25 05:14:18;;;;;;;3.33;1.00;;;;;;;13.34;100.00;99469.84;5091177;28;20509;-43
2023/12/25 05:16:46;;;;;;;2.80;0.98;;;;;;;13.37;100.00;99475.78;5102503;28;20410;-44
2023/12/25 05:19:15;;;;;;;1.35;0.90;;;;;;;13.33;100.00;99484.22;5111289;28;20044;-44
2023/12/25 05:21:44;;;;;;;1.55;0.80;;;;;;;13.39;100.00;99483.66;5111304;28;20130;-43
2023/12/25 05:24:13;;;;;;;2.35;0.70;;;;;;;13.34;100.00;99485.91;5095768;28;20083;-43
2023/12/25 05:26:41;;;;;;;2.22;0.90;;;;;;;13.48;100.00;99477.53;5090899;28;20052;-44
2023/12/25 05:29:10;;;;;;;1.77;0.85;;;;;;;13.61;100.00;99488.09;5091009;28;20055;-43
2023/12/25 05:31:38;;;;;;;3.38;1.05;;;;;;;13.63;100.00;99484.28;5090879;28;20126;-41
2023/12/25 05:34:06;;;;;;;1.92;0.90;;;;;;;13.61;100.00;99494.31;5111565;28;20044;-42
2023/12/25 05:36:35;;;;;;;1.50;0.80;;;;;;;13.68;100.00;99495.47;5114824;28;20040;-44
2023/12/25 05:39:04;;;;;;;1.80;0.80;;;;;;;13.75;100.00;99491.28;5114697;28;20124;-44
2023/12/25 05:41:42;;;;;;;1.60;0.70;;;;;;;13.70;100.00;99504.25;5114996;28;20047;-42
2023/12/25 05:44:11;;;;;;;2.10;1.10;;;;;;;13.74;100.00;99500.31;5114934;28;20044;-43
2023/12/25 05:46:39;;;;;;;3.83;1.02;;;;;;;13.90;100.00;99512.41;5114296;28;20121;-42
2023/12/25 05:49:08;;;;;;;1.13;0.65;;;;;;;13.89;100.00;99522.25;5109997;28;20139;-42
2023/12/25 05:51:36;;;;;;;4.78;0.82;;;;;;;14.08;100.00;99508.13;5099305;28;20453;-43
2023/12/25 05:54:06;;;;;;;4.60;1.10;;;;;;;14.04;100.00;99498.66;5094286;28;20094;-42
2023/12/25 05:56:35;;;;;;;3.38;1.10;;;;;;;13.93;100.00;99502.28;5094835;28;20052;-44
2023/12/25 05:59:04;;;;;;;1.30;0.77;;;;;;;14.08;100.00;99502.75;5103026;28;20455;-45
2023/12/25 06:01:33;;;;;;;1.75;0.90;;;;;;;13.96;100.00;99499.31;5114461;28;20047;-43
2023/12/25 06:04:01;;;;;;;1.45;0.70;;;;;;;13.97;100.00;99510.88;5114254;28;20101;-43
2023/12/25 06:06:30;;;;;;;2.45;0.70;;;;;;;13.98;100.00;99497.34;5114210;28;20581;-45
2023/12/25 06:08:58;;;;;;;1.75;0.90;;;;;;;14.18;100.00;99495.63;5114132;27;20050;-43
2023/12/25 06:11:28;;;;;;;2.10;1.00;;;;;;;14.08;100.00;99502.75;5114194;28;20567;-42
2023/12/25 06:13:56;;;;;;;2.22;1.02;;;;;;;14.13;100.00;99503.22;5114087;28;20046;-43
2023/12/25 06:16:25;;;;;;;1.23;0.65;;;;;;;14.11;100.00;99518.59;5096267;28;20048;-43
2023/12/25 06:18:53;;;;;;;1.90;0.80;;;;;;;14.18;100.00;99525.13;5093635;28;20102;-45
2023/12/25 06:21:22;;;;;;;1.52;0.82;;;;;;;14.15;100.00;99519.19;5093717;28;20128;-46
2023/12/25 06:23:50;;;;;;;1.80;0.90;;;;;;;14.28;100.00;99528.72;5093537;28;20131;-45
2023/12/25 06:26:18;;;;;;;2.80;0.80;;;;;;;14.35;100.00;99520.97;5098274;28;20101;-42
2023/12/25 06:28:48;;;;;;;2.63;1.13;;;;;;;14.22;100.00;99531.94;5113864;27;20412;-42
2023/12/25 06:31:16;;;;;;;2.38;0.80;;;;;;;14.19;100.00;99542.09;5114041;28;20070;-42
2023/12/25 06:33:45;;;;;;;1.73;0.80;;;;;;;14.18;100.00;99546.56;5113746;27;20043;-43
2023/12/25 06:36:14;;;;;;;2.28;0.90;;;;;;;14.14;100.00;99542.47;5113581;28;20047;-43
2023/12/25 06:38:42;;;;;;;1.80;0.88;;;;;;;14.15;100.00;99540.63;5098335;28;20055;-42
2023/12/25 06:41:11;;;;;;;2.28;1.10;;;;;;;14.12;100.00;99531.03;5093239;28;20093;-42
2023/12/25 06:43:39;;;;;;;1.15;0.77;;;;;;;14.10;100.00;99537.53;5092885;28;20475;-42
2023/12/25 06:46:09;;;;;;;1.92;1.02;;;;;;;14.06;100.00;99542.28;5073202;28;20058;-42
2023/12/25 06:48:37;;;;;;;1.42;0.82;;;;;;;14.03;100.00;99553.28;5106482;28;20050;-42
2023/12/25 06:51:08;;;;;;;2.22;0.90;;;;;;;13.90;100.00;99553.47;5113491;28;20123;-43
2023/12/25 06:53:36;;;;;;;2.00;0.85;;;;;;;14.06;100.00;99571.78;5113349;28;20050;-44
2023/12/25 06:56:07;;;;;;;5.13;1.42;;;;;;;13.99;100.00;99565.22;5113227;28;20134;-42
2023/12/25 06:58:35;;;;;;;3.90;1.42;;;;;;;13.90;100.00;99564.19;5108224;28;20051;-42
2023/12/25 07:01:06;;;;;;;2.17;0.90;;;;;;;13.94;100.00;99570.13;5092848;28;20059;-46
2023/12/25 07:03:36;;;;;;;3.13;1.13;;;;;;;13.85;100.00;99582.50;5092747;28;20062;-43
2023/12/25 07:06:07;;;;;;;2.70;1.00;;;;;;;13.78;100.00;99569.72;5092151;28;20051;-43
2023/12/25 07:08:36;;;;;;;1.65;0.90;;;;;;;13.71;100.00;99570.25;5095344;28;20520;-43
2023/12/25 07:11:05;;;;;;;2.50;1.10;;;;;;;13.67;100.00;99568.81;5113306;28;20047;-43
2023/12/25 07:13:36;;;;;;;2.28;1.30;;;;;;;13.66;100.00;99567.09;5112743;28;20519;-44
2023/12/25 07:16:05;;;;;;;2.38;1.00;;;;;;;13.61;100.00;99568.47;5112989;28;20059;-42
2023/12/25 07:18:33;;;;;;;2.70;1.23;;;;;;;13.60;100.00;99578.31;5112757;28;20052;-43
2023/12/25 07:21:03;;;;;;;2.28;1.30;;;;;;;13.52;100.00;99575.47;5100997;28;20044;-42
2023/12/25 07:23:31;;;;;;;3.15;1.33;;;;;;;13.48;100.00;99590.06;5092423;28;20498;-42
2023/12/25 07:25:59;;;;;;;2.75;1.50;;;;;;;13.45;100.00;99590.31;5092335;28;20044;-44
2023/12/25 07:28:28;;;;;;;3.25;1.70;;;;;;;13.49;100.00;99585.56;5092251;28;20562;-42
2023/12/25 07:30:57;;;;;;;3.78;1.85;;;;;;;13.50;100.00;99593.47;5092818;28;20139;-46
2023/12/25 07:33:26;;;;;;;3.40;2.00;;;;;;;13.44;100.00;99594.84;5112505;28;20062;-42
2023/12/25 07:35:54;;;;;;;5.55;2.08;;;;;;;13.47;100.00;99593.72;5112363;28;20052;-41
2023/12/25 07:38:25;;;;;;;5.43;2.00;;;;;;;13.42;100.00;99606.66;5112847;28;20050;-43
2023/12/25 07:40:53;;;;;;;5.88;2.40;;;;;;;13.28;100.00;99597.06;5101564;28;20051;-42
2023/12/25 07:43:22;;;;;;;4.63;2.33;;;;;;;13.35;100.00;99605.44;5098518;28;20054;-43
2023/12/25 07:45:50;;;;;;;14.27;3.67;;;;;;;13.32;100.00;99616.44;5097587;28;21328;-41
2023/12/25 07:48:20;;;;;;;7.90;2.95;;;;;;;13.28;100.00;99621.16;5096387;28;20039;-43
2023/12/25 07:50:51;;;;;;;6.47;2.30;;;;;;;13.21;100.00;99624.47;5098273;28;20047;-42
2023/12/25 07:53:19;;;;;;;5.07;2.67;;;;;;;13.20;100.00;99612.03;5096123;28;20109;-45
2023/12/25 07:55:49;;;;;;;6.35;2.88;;;;;;;13.23;100.00;99626.06;5094165;28;20052;-43
2023/12/25 07:58:17;;;;;;;7.80;3.15;;;;;;;13.21;100.00;99611.91;5094755;28;20476;-43
2023/12/25 08:00:45;;;;;;;8.00;3.20;;;;;;;13.21;100.00;99625.31;5101703;28;20051;-43
2023/12/25 08:03:14;;;;;;;8.30;3.22;;;;;;;13.13;100.00;99636.63;5092584;28;20454;-42
2023/12/25 08:05:43;;;;;;;7.88;3.00;;;;;;;13.06;100.00;99629.22;5091525;28;20101;-43
2023/12/25 08:08:11;;;;;;;7.05;2.90;;;;;;;13.05;100.00;99628.34;5093545;28;20492;-42
2023/12/25 08:10:39;;;;;;;7.55;2.97;;;;;;;13.01;100.00;99629.56;5091422;28;20044;-43
2023/12/25 08:13:09;;;;;;;7.13;3.13;;;;;;;13.02;100.00;99623.22;5091389;28;20054;-42
2023/12/25 08:15:37;;;;;;;6.50;3.30;;;;;;;13.01;100.00;99640.25;5093777;28;20435;-43
2023/12/25 08:18:06;;;;;;;5.75;3.00;;;;;;;12.95;100.00;99651.47;5096433;28;20709;-43
2023/12/25 08:20:35;;;;;;;5.93;3.05;;;;;;;12.90;100.00;99659.00;5096297;28;20047;-41
2023/12/25 08:23:04;;;;;;;6.85;3.45;;;;;;;12.94;100.00;99655.13;5096205;28;20052;-41
2023/12/25 08:25:32;;;;;;;7.70;3.45;;;;;;;12.87;100.00;99648.56;5095627;28;21073;-43
2023/12/25 08:28:00;;;;;;;9.95;3.28;;;;;;;12.91;100.00;99639.31;5099048;28;20043;-42
2023/12/25 08:30:32;;;;;;;6.47;3.15;;;;;;;13.01;100.00;99656.31;5110697;28;20048;-43
2023/12/25 08:33:00;;;;;;;5.50;3.20;;;;;;;13.05;100.00;99643.56;5094289;28;20048;-42
2023/12/25 08:35:28;;;;;;;6.60;3.30;;;;;;;12.77;100.00;99652.94;5095025;28;20408;-42
2023/12/25 08:37:57;;;;;;;5.28;3.28;;;;;;;12.93;100.00;99634.66;5103126;28;20175;-42
2023/12/25 08:40:25;;;;;;;7.03;3.10;;;;;;;13.01;100.00;99642.94;5091030;28;20044;-45
2023/12/25 08:42:54;;;;;;;6.38;2.92;;;;;;;13.06;100.00;99654.16;5099820;28;20172;-41
2023/12/25 08:45:23;;;;;;;6.32;3.28;;;;;;;13.11;100.00;99659.97;5111265;28;20043;-42
2023/12/25 08:47:53;;;;;;;8.73;3.72;;;;;;;13.12;100.00;99659.03;5100620;28;20052;-42
2023/12/25 08:50:22;;;;;;;7.10;3.30;;;;;;;13.12;100.00;99669.75;5091118;28;20140;-43
2023/12/25 08:52:50;;;;;;;8.88;4.18;;;;;;;13.08;100.00;99678.97;5099583;28;20043;-42
2023/12/25 08:55:19;;;;;;;7.28;3.95;;;;;;;13.06;100.00;99670.22;5100218;28;20050;-42
2023/12/25 08:57:47;;;;;;;8.18;3.80;;;;;;;13.04;100.00;99680.19;5098845;28;20138;-43
2023/12/25 09:00:16;;;;;;;9.63;4.25;;;;;;;12.94;100.00;99675.69;5102594;28;20124;-43
2023/12/25 09:02:45;;;;;;;10.75;5.07;;;;;;;12.87;100.00;99683.34;5099515;28;20404;-42
2023/12/25 09:05:15;;;;;;;9.90;5.20;;;;;;;12.71;100.00;99686.38;5099839;28;20058;-42
2023/12/25 09:07:43;;;;;;;8.30;4.80;;;;;;;12.69;100.00;99699.03;5098257;28;20154;-42
2023/12/25 09:10:12;;;;;;;11.55;5.47;;;;;;;12.59;100.00;99687.31;5101574;28;20100;-43
2023/12/25 09:12:40;;;;;;;10.57;5.50;;;;;;;12.44;100.00;99710.75;5103486;28;20124;-42
2023/12/25 09:15:09;;;;;;;10.70;6.03;;;;;;;12.47;100.00;99704.31;5107190;28;20054;-42
2023/12/25 09:17:38;;;;;;;8.90;5.38;;;;;;;12.30;100.00;99697.59;5109436;28;20040;-44
2023/12/25 09:20:08;;;;;;;11.02;5.93;;;;;;;12.06;100.00;99692.25;5102149;28;20048;-42
2023/12/25 09:22:39;;;;;;;12.23;5.90;;;;;;;11.79;100.00;99679.13;5098968;28;20051;-43
2023/12/25 09:25:08;;;;;;;10.65;6.30;;;;;;;11.55;100.00;99680.91;5101260;28;20086;-42
2023/12/25 09:27:37;;;;;;;12.57;6.90;;;;;;;11.49;100.00;99681.38;5095469;28;20048;-42
2023/12/25 09:30:08;;;;;;;11.40;6.20;;;;;;;11.39;100.00;99687.38;5094269;28;20054;-42
2023/12/25 09:32:43;;;;;;;13.35;7.13;;;;;;;11.41;100.00;99681.94;5095541;28;20105;-41
2023/12/25 09:35:13;;;;;;;12.23;6.60;;;;;;;11.46;100.00;99679.75;5098906;28;20147;-42
2023/12/25 09:37:43;;;;;;;11.68;6.40;;;;;;;11.36;100.00;99674.25;5093153;28;20044;-43
2023/12/25 09:40:13;;;;;;;10.68;6.00;;;;;;;11.49;100.00;99673.38;5101165;28;20043;-44
2023/12/25 09:42:41;;;;;;;10.60;6.63;;;;;;;11.47;100.00;99681.47;5094078;28;20827;-42
2023/12/25 09:45:11;;;;;;;12.82;6.13;;;;;;;11.56;100.00;99674.59;5092929;28;20138;-42
2023/12/25 09:47:41;;;;;;;11.82;6.70;;;;;;;11.53;100.00;99674.84;5094680;28;20044;-42
2023/12/25 09:50:11;;;;;;;17.35;8.70;;;;;;;11.60;100.00;99670.75;5094018;28;20055;-42
2023/12/25 09:52:39;;;;;;;15.07;6.70;;;;;;;11.59;100.00;99677.06;5096098;28;20044;-42
2023/12/25 09:55:09;;;;;;;14.00;5.90;;;;;;;11.72;100.00;99680.53;5092653;28;20402;-41
2023/12/25 09:57:40;;;;;;;12.00;5.68;;;;;;;11.75;100.00;99677.63;5097558;28;20048;-41
2023/12/25 10:00:10;;;;;;;12.48;5.75;;;;;;;11.73;100.00;99667.06;5091480;28;20075;-41
2023/12/25 10:02:42;;;;;;;9.70;4.88;;;;;;;11.85;100.00;99669.81;5096051;28;20055;-41
2023/12/25 10:05:12;;;;;;;10.27;5.18;;;;;;;11.95;100.00;99671.69;5093795;28;20067;-42
2023/12/25 10:07:41;;;;;;;10.82;5.85;;;;;;;11.88;100.00;99669.59;5096997;28;20055;-43
2023/12/25 10:10:11;;;;;;;10.45;6.03;;;;;;;11.79;100.00;99673.78;5096211;28;20055;-42
2023/12/25 10:12:44;;;;;;;11.32;6.68;;;;;;;11.70;100.00;99671.78;5099235;28;20074;-42
2023/12/25 10:15:13;;;;;;;12.75;7.53;;;;;;;11.61;100.00;99672.47;5095535;28;20099;-41
2023/12/25 10:17:42;;;;;;;17.40;8.82;;;;;;;11.58;100.00;99686.03;5099239;28;20054;-43
2023/12/25 10:20:18;;;;;;;18.52;9.02;;;;;;;11.49;100.00;99662.69;5096643;28;20492;-45
2023/12/25 10:22:46;;;;;;;17.63;8.38;;;;;;;11.39;100.00;99679.38;5095821;28;20048;-44
2023/12/25 10:25:16;;;;;;;14.70;8.55;;;;;;;11.28;100.00;99668.59;5098732;28;20044;-42
2023/12/25 10:27:45;;;;;;;16.35;9.10;;;;;;;11.23;100.00;99656.56;5097025;28;20049;-41
2023/12/25 10:30:17;;;;;;;16.80;9.23;;;;;;;11.18;100.00;99655.06;5097092;28;20544;-41
2023/12/25 10:32:46;;;;;;;17.85;9.65;;;;;;;11.16;100.00;99666.81;5097778;28;20044;-43
2023/12/25 10:35:18;;;;;;;19.67;9.68;;;;;;;11.06;100.00;99641.75;5098142;28;20047;-42
2023/12/25 10:37:47;;;;;;;16.08;9.30;;;;;;;11.15;100.00;99652.63;5095660;28;20051;-41
2023/12/25 10:40:21;;;;;;;20.13;10.93;;;;;;;11.21;100.00;99670.03;5096188;28;20050;-41
2023/12/25 10:42:53;;;;;;;18.50;9.85;;;;;;;11.24;100.00;99674.28;5095199;28;20040;-42
2023/12/25 10:45:23;;;;;;;18.08;9.77;;;;;;;11.22;100.00;99655.72;5095794;28;20048;-41
2023/12/25 10:47:52;;;;;;;18.10;9.82;;;;;;;11.29;100.00;99667.66;5097410;28;20048;-43
2023/12/25 10:50:24;;;;;;;17.27;9.73;;;;;;;11.27;100.00;99666.03;5097358;28;20036;-42
2023/12/25 10:52:55;;;;;;;16.60;10.27;;;;;;;11.28;100.00;99647.25;5097124;28;20054;-42
2023/12/25 10:55:35;;;;;;;20.90;10.60;;;;;;;11.20;100.00;99651.47;5097491;28;20044;-44
2023/12/25 10:58:06;;;;;;;17.50;9.43;;;;;;;11.14;100.00;99644.72;5098093;28;20173;-42
2023/12/25 11:00:37;;;;;;;18.75;9.68;;;;;;;11.22;100.00;99655.72;5094463;28;20094;-42
2023/12/25 11:03:06;;;;;;;16.95;9.55;;;;;;;11.25;100.00;99644.81;5097047;28;20055;-42
2023/12/25 11:05:36;;;;;;;19.23;9.63;;;;;;;11.23;100.00;99672.59;5094542;28;20048;-41
2023/12/25 11:08:05;;;;;;;16.00;9.32;;;;;;;11.34;100.00;99678.00;5098176;28;20039;-43
2023/12/25 11:10:36;;;;;;;15.60;8.95;;;;;;;11.37;100.00;99675.94;5094299;28;20044;-42
2023/12/25 11:13:04;;;;;;;19.17;10.10;;;;;;;11.40;100.00;99681.09;5090843;28;20417;-45
2023/12/25 11:15:32;;;;;;;18.33;9.15;;;;;;;11.45;100.00;99678.06;5092620;28;20522;-41
2023/12/25 11:18:01;;;;;;;21.52;9.73;;;;;;;11.55;100.00;99673.75;5097714;28;20146;-42
2023/12/25 11:20:31;;;;;;;22.33;9.88;;;;;;;11.66;100.00;99680.97;5096615;28;20040;-42
2023/12/25 11:22:59;;;;;;;16.42;9.48;;;;;;;11.74;100.00;99678.59;5095504;28;20392;-41
2023/12/25 11:25:32;;;;;;;16.17;9.07;;;;;;;11.71;100.00;99694.88;5097813;28;20043;-44
2023/12/25 11:28:04;;;;;;;14.50;8.93;;;;;;;11.82;100.00;99670.06;5095822;28;20455;-42
2023/12/25 11:30:35;;;;;;;15.57;8.32;;;;;;;11.90;100.00;99681.88;5091801;28;20047;-41